createdAt,value
2017-09-08T00:01:15.669Z,3.40
2017-09-08T00:03:45.094Z,2.97
2017-09-08T00:06:14.729Z,3.20
2017-09-08T00:08:44.213Z,3.10
2017-09-08T00:11:13.662Z,10.87
2017-09-08T00:13:43.112Z,11.20
2017-09-08T00:16:12.543Z,4.00
2017-09-08T00:18:41.995Z,4.23
2017-09-08T00:21:12.216Z,3.80
2017-09-08T00:23:41.736Z,3.77
2017-09-08T00:26:17.288Z,3.33
2017-09-08T00:28:46.727Z,3.07
2017-09-08T00:31:16.151Z,3.10
2017-09-08T00:33:45.598Z,3.13
2017-09-08T00:36:15.078Z,3.30
2017-09-08T00:38:52.445Z,2.87
2017-09-08T00:41:21.903Z,3.30
2017-09-08T00:43:51.339Z,3.90
2017-09-08T00:46:20.749Z,2.97
2017-09-08T00:48:50.179Z,3.00
2017-09-08T00:51:19.691Z,3.00
2017-09-08T00:53:49.129Z,2.73
2017-09-08T00:56:19.346Z,3.13
2017-09-08T00:58:48.768Z,3.83
2017-09-08T01:01:19.366Z,3.17
2017-09-08T01:03:48.822Z,3.40
2017-09-08T01:06:18.381Z,3.20
2017-09-08T01:08:48.578Z,2.97
2017-09-08T01:11:19.641Z,2.93
2017-09-08T01:13:52.550Z,3.50
2017-09-08T01:16:26.782Z,3.40
2017-09-08T01:18:56.241Z,3.80
2017-09-08T01:21:25.667Z,3.40
2017-09-08T01:24:02.561Z,3.60
2017-09-08T01:26:32.034Z,3.07
2017-09-08T01:29:04.740Z,3.20
2017-09-08T01:31:34.168Z,3.50
2017-09-08T01:34:04.490Z,3.67
2017-09-08T01:36:34.181Z,3.23
2017-09-08T01:39:03.718Z,3.43
2017-09-08T01:41:33.343Z,3.70
2017-09-08T01:44:02.952Z,3.40
2017-09-08T01:46:32.401Z,3.53
2017-09-08T01:49:01.870Z,3.83
2017-09-08T01:51:38.709Z,3.50
2017-09-08T01:54:08.140Z,3.50
2017-09-08T01:56:37.772Z,3.50
2017-09-08T01:59:07.202Z,3.80
2017-09-08T02:01:36.642Z,3.60
2017-09-08T02:04:06.279Z,3.83
2017-09-08T02:06:35.852Z,4.30
2017-09-08T02:09:11.565Z,3.67
2017-09-08T02:11:41.014Z,4.10
2017-09-08T02:14:10.561Z,4.10
2017-09-08T02:16:39.967Z,4.03
2017-09-08T02:19:09.466Z,5.07
2017-09-08T02:21:44.661Z,4.10
2017-09-08T02:24:14.269Z,4.37
2017-09-08T02:26:43.832Z,4.67
2017-09-08T02:29:13.310Z,4.40
2017-09-08T02:31:43.034Z,4.73
2017-09-08T02:34:20.834Z,4.47
2017-09-08T02:36:57.053Z,5.30
2017-09-08T02:39:32.804Z,4.50
2017-09-08T02:42:02.347Z,4.90
2017-09-08T02:44:31.992Z,5.00
2017-09-08T02:47:02.699Z,4.83
2017-09-08T02:49:35.919Z,5.17
2017-09-08T02:52:05.409Z,4.70
2017-09-08T02:54:34.850Z,4.67
2017-09-08T02:57:11.474Z,4.53
2017-09-08T02:59:40.977Z,4.60
2017-09-08T03:02:10.566Z,4.57
2017-09-08T03:04:39.992Z,4.67
2017-09-08T03:07:09.429Z,5.50
2017-09-08T03:09:38.871Z,4.60
2017-09-08T03:12:08.462Z,5.13
2017-09-08T03:14:38.050Z,4.80
2017-09-08T03:17:15.518Z,5.23
2017-09-08T03:19:45.213Z,5.17
2017-09-08T03:22:18.625Z,5.10
2017-09-08T03:24:48.129Z,4.80
2017-09-08T03:27:17.651Z,5.50
2017-09-08T03:29:47.129Z,5.10
2017-09-08T03:32:16.567Z,5.20
2017-09-08T03:34:46.006Z,6.80
2017-09-08T03:37:15.478Z,5.40
2017-09-08T03:39:58.747Z,5.80
2017-09-08T03:42:28.190Z,5.30
2017-09-08T03:44:58.315Z,5.03
2017-09-08T03:47:27.797Z,6.10
2017-09-08T03:49:58.691Z,6.33
2017-09-08T03:52:28.142Z,7.47
2017-09-08T03:54:57.570Z,7.87
2017-09-08T03:57:34.428Z,6.27
2017-09-08T04:00:03.910Z,6.30
2017-09-08T04:02:35.293Z,7.13
2017-09-08T04:05:04.698Z,6.13
2017-09-08T04:07:34.125Z,5.70
2017-09-08T04:10:03.566Z,5.70
2017-09-08T04:12:45.048Z,9.03
2017-09-08T04:15:27.160Z,15.17
2017-09-08T04:17:56.642Z,17.60
2017-09-08T04:20:26.103Z,17.27
2017-09-08T04:22:55.546Z,15.20
2017-09-08T04:25:24.978Z,16.47
2017-09-08T04:27:54.421Z,18.20
2017-09-08T04:30:23.861Z,17.97
2017-09-08T04:32:59.351Z,20.00
2017-09-08T04:35:28.810Z,17.37
2017-09-08T04:38:04.438Z,19.60
2017-09-08T04:40:33.951Z,20.47
2017-09-08T04:43:03.404Z,20.83
2017-09-08T04:45:32.846Z,23.60
2017-09-08T04:48:09.124Z,20.23
2017-09-08T04:50:38.624Z,17.47
2017-09-08T04:53:09.514Z,18.60
2017-09-08T04:55:38.892Z,18.87
2017-09-08T04:58:08.312Z,17.90
2017-09-08T05:00:45.734Z,19.30
2017-09-08T05:03:15.194Z,22.10
2017-09-08T05:05:44.667Z,20.50
2017-09-08T05:08:14.798Z,16.17
2017-09-08T05:10:44.249Z,16.97
2017-09-08T05:13:13.770Z,15.70
2017-09-08T05:15:43.218Z,25.90
2017-09-08T05:18:12.777Z,23.80
2017-09-08T05:20:50.807Z,22.47
2017-09-08T05:23:20.249Z,13.43
2017-09-08T05:25:49.712Z,26.10
2017-09-08T05:28:19.236Z,26.70
2017-09-08T05:31:01.921Z,26.60
2017-09-08T05:33:37.709Z,17.00
2017-09-08T05:36:07.172Z,9.90
2017-09-08T05:38:39.780Z,10.33
2017-09-08T05:41:19.135Z,13.70
2017-09-08T05:43:49.091Z,34.93
2017-09-08T05:46:18.627Z,28.43
2017-09-08T05:48:48.110Z,23.00
2017-09-08T05:51:17.529Z,8.57
2017-09-08T05:53:55.250Z,6.43
2017-09-08T05:56:24.697Z,7.40
2017-09-08T05:58:54.082Z,7.77
2017-09-08T06:01:23.522Z,7.67
2017-09-08T06:04:07.495Z,8.10
2017-09-08T06:06:36.927Z,8.20
2017-09-08T06:09:06.491Z,6.77
2017-09-08T06:11:35.990Z,6.63
2017-09-08T06:14:05.690Z,8.70
2017-09-08T06:16:35.126Z,8.97
2017-09-08T06:19:04.520Z,9.33
2017-09-08T06:21:35.647Z,8.00
2017-09-08T06:24:05.324Z,6.87
2017-09-08T06:26:34.759Z,7.67
2017-09-08T06:29:18.089Z,7.70
2017-09-08T06:31:47.978Z,7.40
2017-09-08T06:34:17.458Z,7.60
2017-09-08T06:36:46.906Z,8.40
2017-09-08T06:39:16.338Z,7.20
2017-09-08T06:41:45.871Z,8.20
2017-09-08T06:44:17.280Z,7.90
2017-09-08T06:46:47.123Z,7.63
2017-09-08T06:49:16.574Z,6.20
2017-09-08T06:51:59.011Z,7.60
2017-09-08T06:54:28.507Z,8.07
2017-09-08T06:56:58.063Z,6.50
2017-09-08T06:59:27.501Z,7.63
2017-09-08T07:01:56.942Z,8.00
2017-09-08T07:04:26.559Z,8.40
2017-09-08T07:07:02.876Z,7.50
2017-09-08T07:09:33.236Z,7.27
2017-09-08T07:12:02.770Z,9.00
2017-09-08T07:14:32.696Z,7.17
2017-09-08T07:17:02.386Z,7.20
2017-09-08T07:19:44.819Z,7.30
2017-09-08T07:22:14.311Z,7.50
2017-09-08T07:24:43.762Z,6.50
2017-09-08T07:27:13.260Z,8.00
2017-09-08T07:29:56.438Z,8.37
2017-09-08T07:32:25.883Z,8.10
2017-09-08T07:35:02.861Z,7.73
2017-09-08T07:37:33.328Z,6.97
2017-09-08T07:40:02.762Z,6.63
2017-09-08T07:42:32.486Z,7.13
2017-09-08T07:45:02.194Z,6.90
2017-09-08T07:47:31.867Z,6.30
2017-09-08T07:50:01.268Z,7.70
2017-09-08T07:52:36.856Z,7.80
2017-09-08T07:55:06.431Z,7.60
2017-09-08T07:57:35.917Z,7.83
2017-09-08T08:00:05.430Z,9.90
2017-09-08T08:02:41.889Z,10.13
2017-09-08T08:05:11.594Z,8.30
2017-09-08T08:07:41.050Z,8.40
2017-09-08T08:10:10.474Z,7.60
2017-09-08T08:12:39.993Z,9.93
2017-09-08T08:15:09.651Z,12.17
2017-09-08T08:17:39.138Z,11.83
2017-09-08T08:20:08.565Z,10.93
2017-09-08T08:22:38.095Z,11.23
2017-09-08T08:25:07.623Z,11.83
2017-09-08T08:27:37.780Z,11.17
2017-09-08T08:30:07.238Z,10.47
2017-09-08T08:32:36.933Z,10.87
2017-09-08T08:35:14.346Z,10.27
2017-09-08T08:37:43.915Z,11.33
2017-09-08T08:40:13.382Z,10.63
2017-09-08T08:42:43.109Z,10.27
2017-09-08T08:45:12.608Z,10.60
2017-09-08T08:47:42.224Z,11.20
2017-09-08T08:50:18.979Z,11.30
2017-09-08T08:53:01.803Z,11.17
2017-09-08T08:55:31.297Z,10.93
2017-09-08T08:58:00.838Z,9.90
2017-09-08T09:00:30.556Z,10.20
2017-09-08T09:02:59.983Z,10.33
2017-09-08T09:05:41.004Z,10.70
2017-09-08T09:08:10.417Z,11.17
2017-09-08T09:10:54.726Z,10.70
2017-09-08T09:13:24.729Z,11.07
2017-09-08T09:15:54.392Z,11.53
2017-09-08T09:18:23.855Z,12.30
2017-09-08T09:21:05.401Z,11.77
2017-09-08T09:23:34.898Z,11.07
2017-09-08T09:26:04.330Z,10.43
2017-09-08T09:28:33.969Z,12.00
2017-09-08T09:31:04.240Z,11.90
2017-09-08T09:33:40.547Z,10.43
2017-09-08T09:36:17.659Z,12.20
2017-09-08T09:38:47.094Z,11.53
2017-09-08T09:41:16.610Z,10.60
2017-09-08T09:43:53.479Z,11.17
2017-09-08T09:46:23.045Z,11.20
2017-09-08T09:48:53.069Z,11.40
2017-09-08T09:51:23.397Z,11.50
2017-09-08T09:53:53.001Z,10.10
2017-09-08T09:56:22.477Z,10.40
2017-09-08T09:58:51.929Z,10.30
2017-09-08T10:01:21.434Z,10.73
2017-09-08T10:03:50.909Z,11.37
2017-09-08T10:06:20.414Z,9.70
2017-09-08T10:08:50.039Z,12.50
2017-09-08T10:11:19.721Z,10.60
2017-09-08T10:13:52.207Z,10.37
2017-09-08T10:16:21.681Z,9.30
2017-09-08T10:19:05.187Z,10.00
2017-09-08T10:21:35.145Z,9.97
2017-09-08T10:24:04.597Z,9.13
2017-09-08T10:26:41.026Z,9.13
2017-09-08T10:29:10.561Z,9.40
2017-09-08T10:31:40.299Z,9.60
2017-09-08T10:34:17.270Z,8.80
2017-09-08T10:36:46.832Z,9.67
2017-09-08T10:39:19.914Z,8.70
2017-09-08T10:41:49.349Z,8.97
2017-09-08T10:44:18.756Z,8.97
2017-09-08T10:46:48.258Z,8.67
2017-09-08T10:49:18.857Z,9.07
2017-09-08T10:52:01.132Z,9.60
2017-09-08T10:54:30.613Z,9.33
2017-09-08T10:57:00.551Z,8.80
2017-09-08T10:59:30.020Z,10.33
2017-09-08T11:01:59.603Z,8.60
2017-09-08T11:04:29.066Z,9.40
2017-09-08T11:06:58.526Z,8.63
2017-09-08T11:09:29.877Z,8.37
2017-09-08T11:11:59.318Z,10.00
2017-09-08T11:14:32.512Z,9.97
2017-09-08T11:17:01.962Z,8.97
2017-09-08T11:19:31.621Z,8.50
2017-09-08T11:22:01.033Z,8.60
2017-09-08T11:24:30.539Z,8.90
2017-09-08T11:27:00.270Z,9.20
2017-09-08T11:29:29.755Z,8.80
2017-09-08T11:32:07.570Z,9.60
2017-09-08T11:34:53.405Z,9.20
2017-09-08T11:37:22.915Z,9.47
2017-09-08T11:39:52.397Z,9.10
2017-09-08T11:42:29.591Z,10.10
2017-09-08T11:44:59.141Z,10.23
2017-09-08T11:47:28.931Z,9.50
2017-09-08T11:49:58.672Z,8.87
2017-09-08T11:52:43.316Z,9.03
2017-09-08T11:55:12.806Z,9.40
2017-09-08T11:57:42.325Z,9.57
2017-09-08T12:00:11.905Z,9.03
2017-09-08T12:02:41.359Z,8.83
2017-09-08T12:05:11.099Z,9.13
2017-09-08T12:07:40.599Z,9.13
2017-09-08T12:10:09.992Z,8.83
2017-09-08T12:12:39.384Z,9.40
2017-09-08T12:15:16.310Z,9.23
2017-09-08T12:17:58.054Z,10.73
2017-09-08T12:20:35.209Z,9.33
2017-09-08T12:23:05.082Z,9.50
2017-09-08T12:25:34.530Z,9.70
2017-09-08T12:28:03.980Z,9.13
2017-09-08T12:30:33.401Z,10.13
2017-09-08T12:33:17.768Z,9.80
2017-09-08T12:35:47.293Z,9.63
2017-09-08T12:38:16.743Z,9.73
2017-09-08T12:40:46.441Z,9.60
2017-09-08T12:43:28.690Z,8.97
2017-09-08T12:45:58.126Z,9.40
2017-09-08T12:48:31.026Z,9.70
2017-09-08T12:51:00.615Z,10.07
2017-09-08T12:53:30.147Z,9.03
2017-09-08T12:55:59.614Z,10.47
2017-09-08T12:58:29.052Z,10.80
2017-09-08T13:01:01.633Z,9.60
2017-09-08T13:03:31.169Z,9.53
2017-09-08T13:06:14.877Z,10.43
2017-09-08T13:08:44.540Z,10.50
2017-09-08T13:11:13.973Z,10.38
2017-09-08T13:13:43.380Z,10.33
2017-09-08T13:16:13.786Z,9.80
2017-09-08T13:18:43.286Z,9.73
2017-09-08T13:21:20.291Z,9.10
2017-09-08T13:24:03.893Z,9.73
2017-09-08T13:26:33.326Z,9.63
2017-09-08T13:29:02.781Z,9.70
2017-09-08T13:31:32.236Z,9.63
2017-09-08T13:34:01.700Z,10.23
2017-09-08T13:36:38.758Z,9.80
2017-09-08T13:39:08.211Z,8.82
2017-09-08T13:41:37.788Z,9.95
2017-09-08T13:44:07.369Z,8.77
2017-09-08T13:46:37.051Z,9.00
2017-09-08T13:49:06.489Z,9.47
2017-09-08T13:51:35.914Z,9.13
2017-09-08T13:54:05.491Z,8.82
2017-09-08T13:56:34.957Z,9.60
2017-09-08T13:59:04.368Z,8.57
2017-09-08T14:01:33.890Z,8.13
2017-09-08T14:04:18.734Z,9.07
2017-09-08T14:06:48.233Z,8.07
2017-09-08T14:09:17.977Z,8.25
2017-09-08T14:11:50.614Z,8.55
2017-09-08T14:14:20.063Z,7.87
2017-09-08T14:16:49.714Z,7.20
2017-09-08T14:19:19.253Z,7.90
2017-09-08T14:21:48.994Z,9.10
2017-09-08T14:24:25.554Z,7.82
2017-09-08T14:26:55.006Z,8.63
2017-09-08T14:29:36.553Z,9.10
2017-09-08T14:32:06.008Z,8.02
2017-09-08T14:34:35.552Z,7.97
2017-09-08T14:37:05.105Z,8.50
2017-09-08T14:39:34.542Z,7.93
2017-09-08T14:42:04.575Z,7.70
2017-09-08T14:44:47.860Z,7.93
2017-09-08T14:47:17.330Z,7.45
2017-09-08T14:49:46.738Z,7.72
2017-09-08T14:52:16.165Z,7.22
2017-09-08T14:54:51.868Z,7.60
2017-09-08T14:57:21.352Z,8.00
2017-09-08T14:59:50.816Z,8.57
2017-09-08T15:02:28.520Z,26.52
2017-09-08T15:04:57.925Z,28.08
2017-09-08T15:07:40.783Z,15.82
2017-09-08T15:10:10.660Z,8.75
2017-09-08T15:12:40.311Z,8.52
2017-09-08T15:15:09.737Z,7.93
2017-09-08T15:17:39.254Z,8.07
2017-09-08T15:20:14.785Z,8.93
2017-09-08T15:22:44.222Z,8.52
2017-09-08T15:25:20.013Z,8.38
2017-09-08T15:27:49.467Z,8.63
2017-09-08T15:30:18.901Z,8.57
2017-09-08T15:32:48.293Z,7.85
2017-09-08T15:35:25.720Z,8.07
2017-09-08T15:37:55.183Z,7.78
2017-09-08T15:40:24.622Z,7.93
2017-09-08T15:43:06.143Z,8.52
2017-09-08T15:45:35.688Z,8.30
2017-09-08T15:48:05.682Z,8.35
2017-09-08T15:50:35.134Z,7.85
2017-09-08T15:53:06.640Z,8.77
2017-09-08T15:55:36.125Z,8.25
2017-09-08T15:58:05.691Z,8.77
2017-09-08T16:00:35.277Z,9.00
2017-09-08T16:03:11.522Z,8.93
2017-09-08T16:05:40.972Z,8.52
2017-09-08T16:08:10.432Z,8.90
2017-09-08T16:10:41.569Z,8.60
2017-09-08T16:13:11.022Z,9.02
2017-09-08T16:15:42.343Z,9.18
2017-09-08T16:18:15.971Z,10.50
2017-09-08T16:20:45.376Z,9.32
2017-09-08T16:23:15.234Z,9.65
2017-09-08T16:25:46.357Z,9.77
2017-09-08T16:28:16.705Z,9.20
2017-09-08T16:31:00.019Z,9.30
2017-09-08T16:33:30.485Z,10.27
2017-09-08T16:36:00.282Z,10.52
2017-09-08T16:38:30.210Z,10.23
2017-09-08T16:40:59.802Z,11.10
2017-09-08T16:43:42.073Z,11.18
2017-09-08T16:46:11.734Z,11.40
2017-09-08T16:48:41.185Z,11.23
2017-09-08T16:51:23.396Z,10.80
2017-09-08T16:53:52.852Z,10.97
2017-09-08T16:56:23.239Z,11.50
2017-09-08T16:58:52.789Z,11.47
2017-09-08T17:01:22.379Z,11.60
2017-09-08T17:03:51.858Z,11.80
2017-09-08T17:06:21.306Z,12.80
2017-09-08T17:08:51.413Z,12.67
2017-09-08T17:11:21.010Z,12.20
2017-09-08T17:14:05.046Z,12.07
2017-09-08T17:16:35.751Z,11.90
2017-09-08T17:19:05.406Z,12.47
2017-09-08T17:21:34.909Z,12.40
2017-09-08T17:24:04.417Z,12.90
2017-09-08T17:26:40.190Z,14.07
2017-09-08T17:29:09.637Z,13.20
2017-09-08T17:31:39.382Z,13.30
2017-09-08T17:34:16.808Z,11.60
2017-09-08T17:36:48.054Z,12.80
2017-09-08T17:39:20.789Z,12.80
2017-09-08T17:41:50.279Z,13.30
2017-09-08T17:44:19.734Z,12.70
2017-09-08T17:46:49.236Z,13.30
2017-09-08T17:49:25.487Z,12.60
2017-09-08T17:51:55.184Z,13.30
2017-09-08T17:54:24.708Z,13.13
2017-09-08T17:56:54.118Z,13.00
2017-09-08T17:59:29.766Z,14.20
2017-09-08T18:02:05.233Z,12.80
2017-09-08T18:04:35.093Z,13.67
2017-09-08T18:07:04.492Z,13.23
2017-09-08T18:09:33.967Z,13.23
2017-09-08T18:12:13.214Z,14.43
2017-09-08T18:14:43.178Z,13.87
2017-09-08T18:17:20.088Z,14.33
2017-09-08T18:19:49.556Z,13.87
2017-09-08T18:22:19.020Z,13.47
2017-09-08T18:24:48.660Z,13.27
2017-09-08T18:27:24.499Z,13.53
2017-09-08T18:29:53.987Z,14.30
2017-09-08T18:32:30.079Z,13.90
2017-09-08T18:35:06.107Z,13.57
2017-09-08T18:37:35.571Z,14.83
2017-09-08T18:40:18.213Z,14.07
2017-09-08T18:42:47.869Z,13.77
2017-09-08T18:45:17.443Z,13.23
2017-09-08T18:47:46.888Z,13.70
2017-09-08T18:50:16.297Z,13.87
2017-09-08T18:52:45.882Z,14.83
2017-09-08T18:55:15.371Z,14.20
2017-09-08T18:57:45.221Z,14.20
2017-09-08T19:00:16.835Z,12.90
2017-09-08T19:02:46.263Z,13.40
2017-09-08T19:05:15.743Z,13.07
2017-09-08T19:07:45.255Z,13.50
2017-09-08T19:10:14.683Z,14.30
2017-09-08T19:12:55.244Z,13.40
2017-09-08T19:15:31.449Z,14.00
2017-09-08T19:18:07.050Z,14.20
2017-09-08T19:20:36.480Z,13.27
2017-09-08T19:23:06.119Z,12.70
2017-09-08T19:25:36.366Z,13.33
2017-09-08T19:28:05.816Z,13.93
2017-09-08T19:30:41.335Z,13.70
2017-09-08T19:33:10.937Z,13.70
2017-09-08T19:35:40.589Z,13.13
2017-09-08T19:38:10.042Z,12.93
2017-09-08T19:40:39.587Z,12.90
2017-09-08T19:43:09.170Z,12.50
2017-09-08T19:45:38.615Z,13.60
2017-09-08T19:48:08.119Z,12.53
2017-09-08T19:50:43.630Z,12.70
2017-09-08T19:53:13.208Z,13.50
2017-09-08T19:55:42.879Z,11.83
2017-09-08T19:58:12.687Z,12.90
2017-09-08T20:00:42.181Z,12.47
2017-09-08T20:03:11.917Z,12.40
2017-09-08T20:05:43.090Z,12.70
2017-09-08T20:08:12.533Z,13.00
2017-09-08T20:10:42.008Z,13.40
2017-09-08T20:13:14.533Z,13.80
2017-09-08T20:15:44.194Z,12.23
2017-09-08T20:18:13.773Z,12.10
2017-09-08T20:20:43.463Z,11.73
2017-09-08T20:23:13.047Z,13.00
2017-09-08T20:25:42.638Z,12.47
2017-09-08T20:28:12.134Z,12.13
2017-09-08T20:30:47.689Z,12.60
2017-09-08T20:33:17.296Z,12.07
2017-09-08T20:35:47.110Z,11.77
2017-09-08T20:38:16.701Z,11.70
2017-09-08T20:40:46.154Z,11.77
2017-09-08T20:43:15.938Z,11.60
2017-09-08T20:45:52.853Z,12.30
2017-09-08T20:48:22.417Z,12.30
2017-09-08T20:50:51.936Z,11.83
2017-09-08T20:53:28.538Z,12.20
2017-09-08T20:55:59.670Z,12.50
2017-09-08T20:58:29.148Z,10.90
2017-09-08T21:00:58.997Z,11.97
2017-09-08T21:03:28.879Z,11.07
2017-09-08T21:05:58.360Z,10.70
2017-09-08T21:08:27.876Z,11.30
2017-09-08T21:10:57.352Z,11.60
2017-09-08T21:13:26.769Z,12.13
2017-09-08T21:16:15.050Z,12.73
2017-09-08T21:18:58.064Z,11.57
2017-09-08T21:21:35.237Z,11.30
2017-09-08T21:24:04.725Z,11.27
2017-09-08T21:26:34.486Z,11.70
2017-09-08T21:29:03.924Z,12.10
2017-09-08T21:31:33.351Z,11.83
2017-09-08T21:34:14.017Z,11.30
2017-09-08T21:36:43.524Z,12.80
2017-09-08T21:39:13.081Z,12.47
2017-09-08T21:41:45.913Z,11.00
2017-09-08T21:44:15.345Z,12.07
2017-09-08T21:46:44.785Z,11.20
2017-09-08T21:49:27.899Z,12.20
2017-09-08T21:51:57.321Z,13.63
2017-09-08T21:54:28.070Z,11.90
2017-09-08T21:56:57.921Z,10.77
2017-09-08T21:59:27.349Z,12.83
2017-09-08T22:01:56.774Z,11.30
2017-09-08T22:04:26.195Z,11.63
2017-09-08T22:06:55.586Z,11.50
2017-09-08T22:09:25.183Z,12.73
2017-09-08T22:11:54.635Z,11.53
2017-09-08T22:14:39.709Z,12.80
2017-09-08T22:17:09.174Z,11.37
2017-09-08T22:19:38.637Z,11.50
2017-09-08T22:22:08.029Z,11.30
2017-09-08T22:24:37.443Z,10.80
2017-09-08T22:27:06.885Z,11.97
2017-09-08T22:29:36.307Z,11.50
2017-09-08T22:32:05.758Z,12.10
2017-09-08T22:34:35.190Z,11.97
2017-09-08T22:37:04.701Z,11.50
2017-09-08T22:39:46.887Z,12.37
2017-09-08T22:42:16.315Z,11.93
2017-09-08T22:44:45.755Z,12.17
2017-09-08T22:47:15.237Z,12.57
2017-09-08T22:49:44.809Z,11.00
2017-09-08T22:52:15.167Z,12.27
2017-09-08T22:54:44.614Z,12.30
2017-09-08T22:57:14.266Z,12.20
2017-09-08T22:59:44.688Z,12.97
2017-09-08T23:02:14.084Z,12.30
2017-09-08T23:04:43.637Z,12.10
2017-09-08T23:07:16.708Z,10.90
2017-09-08T23:09:46.150Z,11.67
2017-09-08T23:12:15.596Z,12.70
2017-09-08T23:14:45.079Z,12.40
2017-09-08T23:17:14.521Z,11.90
2017-09-08T23:19:43.974Z,11.47
2017-09-08T23:22:33.630Z,11.87
2017-09-08T23:25:03.082Z,11.80
2017-09-08T23:27:32.678Z,11.13
2017-09-08T23:30:02.165Z,11.50
2017-09-08T23:32:49.273Z,10.80
2017-09-08T23:35:18.860Z,10.33
2017-09-08T23:37:48.292Z,10.43
2017-09-08T23:40:17.736Z,10.60
2017-09-08T23:42:58.198Z,11.33
2017-09-08T23:45:27.845Z,10.90
2017-09-08T23:47:57.302Z,10.80
2017-09-08T23:50:26.753Z,10.17
2017-09-08T23:52:56.202Z,11.93
2017-09-08T23:55:25.646Z,11.03
2017-09-08T23:57:56.290Z,10.93
